Observation data for Post on 06/24/2019      Previous  Date  Next       Current Mesonet Observations  Soil Data  Daily Summary Page  Observations in Plain Language
KPT1 240500Z 11003KT 24/12 A2988 RMK A01 T02360124  RH  050%=      5-min Rain = 0
KPT1 240505Z 10005KT 24/13 A2988 RMK A01 T02360129  RH  052%=      5-min Rain = 0
KPT1 240510Z 11004KT 23/13 A2988 RMK A01 T02320133  RH  055%=      5-min Rain = 0
KPT1 240515Z 11003KT 23/14 A2989 RMK A01 T02300135  RH  056%=      5-min Rain = 0
KPT1 240520Z 11004KT 23/14 A2989 RMK A01 T02300138  RH  057%=      5-min Rain = 0
KPT1 240525Z 09005KT 23/14 A2989 RMK A01 T02290139  RH  058%=      5-min Rain = 0
KPT1 240530Z 04003KT 23/14 A2989 RMK A01 T02250136  RH  058%=      5-min Rain = 0
KPT1 240535Z 00001KT 22/13 A2989 RMK A01 T02210132  RH  058%=      5-min Rain = 0
KPT1 240540Z 09001KT 22/14 A2989 RMK A01 T02210136  RH  060%=      5-min Rain = 0
KPT1 240545Z 08004KT 22/14 A2989 RMK A01 T02230143  RH  062%=      5-min Rain = 0
KPT1 240550Z 08005KT 22/15 A2989 RMK A01 T02230145  RH  063%=      5-min Rain = 0
KPT1 240555Z 08005KT 22/15 A2989 RMK A01 T02200146  RH  065%=      5-min Rain = 0
KPT1 240600Z 05004KT 22/15 A2989 RMK A01 T02160146  RH  066%=      5-min Rain = 0
KPT1 240605Z 02004KT 21/15 A2989 RMK A01 T02110146  RH  068%=      5-min Rain = 0
KPT1 240610Z 03004KT 21/15 A2989 RMK A01 T02110151  RH  070%=      5-min Rain = 0
KPT1 240615Z 02003KT 21/15 A2989 RMK A01 T02100151  RH  071%=      5-min Rain = 0
KPT1 240620Z 36004KT 21/15 A2989 RMK A01 T02060148  RH  071%=      5-min Rain = 0
KPT1 240625Z 00004KT 21/15 A2989 RMK A01 T02070148  RH  071%=      5-min Rain = 0
KPT1 240630Z 01006KT 21/16 A2989 RMK A01 T02090156  RH  073%=      5-min Rain = 0
KPT1 240635Z 02005KT 21/15 A2989 RMK A01 T02070153  RH  073%=      5-min Rain = 0
KPT1 240640Z 02003KT 20/15 A2989 RMK A01 T02040154  RH  074%=      5-min Rain = 0
KPT1 240645Z 01002KT 20/16 A2989 RMK A01 T02030155  RH  075%=      5-min Rain = 0
KPT1 240650Z 00004KT 20/16 A2989 RMK A01 T02000155  RH  077%=      5-min Rain = 0
KPT1 240655Z 02004KT 20/16 A2989 RMK A01 T02020157  RH  077%=      5-min Rain = 0
KPT1 240700Z 02004KT 20/16 A2989 RMK A01 T02040156  RH  075%=      5-min Rain = 0
KPT1 240705Z 01004KT 20/16 A2989 RMK A01 T02040156  RH  076%=      5-min Rain = 0
KPT1 240710Z 01004KT 20/16 A2989 RMK A01 T02040156  RH  076%=      5-min Rain = 0
KPT1 240715Z 01005KT 20/16 A2989 RMK A01 T02020156  RH  077%=      5-min Rain = 0
KPT1 240720Z 02004KT 20/16 A2989 RMK A01 T02000156  RH  077%=      5-min Rain = 0
KPT1 240725Z 02004KT 20/16 A299 RMK A01 T02000156  RH  077%=      5-min Rain = 0
KPT1 240730Z 01005KT 20/16 A299 RMK A01 T01990155  RH  078%=      5-min Rain = 0
KPT1 240735Z 02004KT 20/16 A299 RMK A01 T01970157  RH  079%=      5-min Rain = 0
KPT1 240740Z 02003KT 20/16 A299 RMK A01 T01960157  RH  080%=      5-min Rain = 0
KPT1 240745Z 03002KT 20/16 A299 RMK A01 T01960158  RH  080%=      5-min Rain = 0
KPT1 240750Z 02003KT 20/16 A299 RMK A01 T01960159  RH  081%=      5-min Rain = 0
KPT1 240755Z 01002KT 20/16 A299 RMK A01 T01950160  RH  082%=      5-min Rain = 0
KPT1 240800Z 01004KT 19/16 A299 RMK A01 T01940161  RH  083%=      5-min Rain = 0
KPT1 240805Z 01004KT 19/16 A299 RMK A01 T01940163  RH  084%=      5-min Rain = 0
KPT1 240810Z 00005KT 20/17 A299 RMK A01 T01950166  RH  085%=      5-min Rain = 0
KPT1 240815Z 01005KT 20/17 A299 RMK A01 T01960167  RH  085%=      5-min Rain = 0
KPT1 240820Z 01006KT 20/17 A299 RMK A01 T01950167  RH  086%=      5-min Rain = 0
KPT1 240825Z 01007KT 20/17 A2991 RMK A01 T01950168  RH  087%=      5-min Rain = 0
KPT1 240830Z 01007KT 20/17 A2991 RMK A01 T01950170  RH  087%=      5-min Rain = 0
KPT1 240835Z 01007KT 20/17 A2991 RMK A01 T01960171  RH  087%=      5-min Rain = 0
KPT1 240840Z 02005KT 20/17 A2991 RMK A01 T01960171  RH  088%=      5-min Rain = 0
KPT1 240845Z 03005KT 20/17 A2991 RMK A01 T01960171  RH  088%=      5-min Rain = 0
KPT1 240850Z 01006KT 20/17 A2991 RMK A01 T01960172  RH  088%=      5-min Rain = 0
KPT1 240855Z 01006KT 20/17 A2992 RMK A01 T01970173  RH  088%=      5-min Rain = 0
KPT1 240900Z 02004KT 20/17 A2991 RMK A01 T01980173  RH  088%=      5-min Rain = 0
KPT1 240905Z 03005KT 20/17 A2991 RMK A01 T01980174  RH  088%=      5-min Rain = 0
KPT1 240910Z 02006KT 20/17 A2992 RMK A01 T01960173  RH  089%=      5-min Rain = 0
KPT1 240915Z 03004KT 20/17 A2992 RMK A01 T01960174  RH  089%=      5-min Rain = 0
KPT1 240920Z 04004KT 20/17 A2992 RMK A01 T01960174  RH  089%=      5-min Rain = 0
KPT1 240925Z 04005KT 20/17 A2992 RMK A01 T01960174  RH  089%=      5-min Rain = 0
KPT1 240930Z 04006KT 20/18 A2992 RMK A01 T01960175  RH  090%=      5-min Rain = 0
KPT1 240935Z 05005KT 20/17 A2992 RMK A01 T01950174  RH  090%=      5-min Rain = 0
KPT1 240940Z 05006KT 19/17 A2992 RMK A01 T01930173  RH  090%=      5-min Rain = 0
KPT1 240945Z 04006KT 19/18 A2993 RMK A01 T01940175  RH  091%=      5-min Rain = 0
KPT1 240950Z 04007KT 19/18 A2993 RMK A01 T01930175  RH  091%=      5-min Rain = 0
KPT1 240955Z 03007KT 19/18 A2993 RMK A01 T01940176  RH  092%=      5-min Rain = 0
KPT1 241000Z 03008KT 19/18 A2993 RMK A01 T01940177  RH  092%=      5-min Rain = 0
KPT1 241005Z 04008KT 20/18 A2993 RMK A01 T01950177  RH  091%=      5-min Rain = 0
KPT1 241010Z 04008KT 20/18 A2993 RMK A01 T01960177  RH  091%=      5-min Rain = 0
KPT1 241015Z 04009KT 20/18 A2993 RMK A01 T01960177  RH  091%=      5-min Rain = 0
KPT1 241020Z 04007KT 20/18 A2993 RMK A01 T01960176  RH  091%=      5-min Rain = 0
KPT1 241025Z 04007KT 20/18 A2993 RMK A01 T01960177  RH  090%=      5-min Rain = 0
KPT1 241030Z 04007KT 20/18 A2993 RMK A01 T01970177  RH  090%=      5-min Rain = 0
KPT1 241035Z 05008KT 20/18 A2993 RMK A01 T01970176  RH  090%=      5-min Rain = 0
KPT1 241040Z 05007KT 20/18 A2993 RMK A01 T01980176  RH  090%=      5-min Rain = 0
KPT1 241045Z 05007KT 20/18 A2993 RMK A01 T01970176  RH  089%=      5-min Rain = 0
KPT1 241050Z 04007KT 20/18 A2993 RMK A01 T01970175  RH  089%=      5-min Rain = 0
KPT1 241055Z 04008KT 20/18 A2994 RMK A01 T01970176  RH  090%=      5-min Rain = 0
KPT1 241100Z 04007KT 20/18 A2994 RMK A01 T01960176  RH  090%=      5-min Rain = 0
KPT1 241105Z 03007KT 20/18 A2994 RMK A01 T01960176  RH  090%=      5-min Rain = 0
KPT1 241110Z 03006KT 20/18 A2994 RMK A01 T01950176  RH  091%=      5-min Rain = 0
KPT1 241115Z 03007KT 20/18 A2995 RMK A01 T01950176  RH  091%=      5-min Rain = 0
KPT1 241120Z 04007KT 19/18 A2995 RMK A01 T01940176  RH  092%=      5-min Rain = 0
KPT1 241125Z 03006KT 19/18 A2995 RMK A01 T01930176  RH  092%=      5-min Rain = 0
KPT1 241130Z 03006G11KT 19/18 A2995 RMK A01 T01920176  RH  092%=      5-min Rain = 0
KPT1 241135Z 04006KT 19/18 A2995 RMK A01 T01930177  RH  093%=      5-min Rain = 0
KPT1 241140Z 04007KT 19/18 A2995 RMK A01 T01920176  RH  093%=      5-min Rain = 0
KPT1 241145Z 04008KT 19/18 A2996 RMK A01 T01930177  RH  093%=      5-min Rain = 0
KPT1 241150Z 04004KT 19/18 A2996 RMK A01 T01920176  RH  092%=      5-min Rain = 0
KPT1 241155Z 05005KT 19/18 A2996 RMK A01 T01920176  RH  093%=      5-min Rain = 0
KPT1 241200Z 05005KT 19/18 A2996 RMK A01 T01920176  RH  093%=      5-min Rain = 0
KPT1 241205Z 05004KT 19/18 A2996 RMK A01 T01930177  RH  093%=      5-min Rain = 0
KPT1 241210Z 05005KT 19/18 A2996 RMK A01 T01940178  RH  093%=      5-min Rain = 0
KPT1 241215Z 05005KT 20/18 A2996 RMK A01 T01950178  RH  092%=      5-min Rain = 0
KPT1 241220Z 04006KT 20/18 A2996 RMK A01 T01960179  RH  092%=      5-min Rain = 0
KPT1 241225Z 04007KT 20/18 A2996 RMK A01 T01970179  RH  091%=      5-min Rain = 0
KPT1 241230Z 04007KT 20/18 A2996 RMK A01 T01980179  RH  091%=      5-min Rain = 0
KPT1 241235Z 04006KT 20/18 A2997 RMK A01 T02010179  RH  090%=      5-min Rain = 0
KPT1 241240Z 04006KT 20/18 A2997 RMK A01 T02030179  RH  088%=      5-min Rain = 0
KPT1 241245Z 04007KT 20/18 A2997 RMK A01 T02030178  RH  088%=      5-min Rain = 0
KPT1 241250Z 04006KT 21/18 A2997 RMK A01 T02050179  RH  087%=      5-min Rain = 0
KPT1 241255Z 04008KT 21/18 A2997 RMK A01 T02060178  RH  086%=      5-min Rain = 0
KPT1 241300Z 05007KT 21/18 A2998 RMK A01 T02080179  RH  086%=      5-min Rain = 0
KPT1 241305Z 04008KT 21/18 A2998 RMK A01 T02110179  RH  084%=      5-min Rain = 0
KPT1 241310Z 05009KT 21/18 A2998 RMK A01 T02110178  RH  083%=      5-min Rain = 0
KPT1 241315Z 05008KT 21/18 A2998 RMK A01 T02090179  RH  085%=      5-min Rain = 0
KPT1 241320Z 04008KT 21/18 A2998 RMK A01 T02110178  RH  083%=      5-min Rain = 0
KPT1 241325Z 04009KT 21/18 A2999 RMK A01 T02110178  RH  083%=      5-min Rain = 0
KPT1 241330Z 05010KT 21/18 A2999 RMK A01 T02120178  RH  083%=      5-min Rain = 0
KPT1 241335Z 05009G14KT 22/18 A2999 RMK A01 T02150179  RH  082%=      5-min Rain = 0
KPT1 241340Z 05010KT 22/18 A2999 RMK A01 T02170179  RH  081%=      5-min Rain = 0
KPT1 241345Z 05010KT 22/18 A2999 RMK A01 T02190179  RH  080%=      5-min Rain = 0
KPT1 241350Z 05010KT 22/18 A2999 RMK A01 T02230180  RH  078%=      5-min Rain = 0
KPT1 241355Z 05011KT 22/18 A2999 RMK A01 T02240179  RH  078%=      5-min Rain = 0
KPT1 241400Z 06010KT 23/18 A2999 RMK A01 T02260179  RH  077%=      5-min Rain = 0
KPT1 241405Z 05010KT 23/18 A2999 RMK A01 T02290179  RH  076%=      5-min Rain = 0
KPT1 241410Z 06011G16KT 23/18 A30 RMK A01 T02300179  RH  075%=      5-min Rain = 0
KPT1 241415Z 06010KT 23/18 A30 RMK A01 T02300178  RH  075%=      5-min Rain = 0
KPT1 241420Z 07012KT 23/18 A30 RMK A01 T02340178  RH  073%=      5-min Rain = 0
KPT1 241425Z 06010KT 24/18 A30 RMK A01 T02360178  RH  072%=      5-min Rain = 0
KPT1 241430Z 06012KT 24/18 A30 RMK A01 T02380178  RH  071%=      5-min Rain = 0
KPT1 241435Z 05012KT 24/18 A30 RMK A01 T02380177  RH  070%=      5-min Rain = 0
KPT1 241440Z 06011G16KT 24/18 A30 RMK A01 T02390177  RH  070%=      5-min Rain = 0
KPT1 241445Z 06013G18KT 24/18 A30 RMK A01 T02380176  RH  070%=      5-min Rain = 0
KPT1 241450Z 07013G18KT 24/18 A30 RMK A01 T02410175  RH  068%=      5-min Rain = 0
KPT1 241455Z 07013G21KT 24/17 A30 RMK A01 T02380173  RH  069%=      5-min Rain = 0
KPT1 241500Z 08012KT 24/17 A30 RMK A01 T02390172  RH  068%=      5-min Rain = 0
KPT1 241505Z 07013G18KT 24/17 A30 RMK A01 T02390172  RH  068%=      5-min Rain = 0
KPT1 241510Z 08012G18KT 24/17 A30 RMK A01 T02430172  RH  066%=      5-min Rain = 0
KPT1 241515Z 08013G18KT 25/17 A30 RMK A01 T02460171  RH  065%=      5-min Rain = 0
KPT1 241520Z 07012KT 24/17 A30 RMK A01 T02420173  RH  067%=      5-min Rain = 0
KPT1 241525Z 06012G17KT 25/17 A30 RMK A01 T02490173  RH  065%=      5-min Rain = 0
KPT1 241530Z 07013KT 25/17 A30 RMK A01 T02480172  RH  064%=      5-min Rain = 0
KPT1 241535Z 08013G18KT 25/17 A30 RMK A01 T02540173  RH  062%=      5-min Rain = 0
KPT1 241540Z 08013G20KT 25/17 A30 RMK A01 T02520169  RH  062%=      5-min Rain = 0
KPT1 241545Z 08012KT 25/17 A30 RMK A01 T02520171  RH  062%=      5-min Rain = 0
KPT1 241550Z 07010G18KT 26/17 A30 RMK A01 T02550174  RH  062%=      5-min Rain = 0
KPT1 241555Z 08013G20KT 26/17 A30 RMK A01 T02550171  RH  061%=      5-min Rain = 0
KPT1 241600Z 09013G21KT 25/17 A30 RMK A01 T02540171  RH  061%=      5-min Rain = 0
KPT1 241605Z 09012G20KT 26/17 A30 RMK A01 T02560171  RH  061%=      5-min Rain = 0
KPT1 241610Z 07013KT 26/17 A2999 RMK A01 T02550172  RH  061%=      5-min Rain = 0
KPT1 241615Z 07013G18KT 26/17 A2999 RMK A01 T02620173  RH  060%=      5-min Rain = 0
KPT1 241620Z 09012G18KT 27/17 A2999 RMK A01 T02650174  RH  059%=      5-min Rain = 0
KPT1 241625Z 09011G18KT 27/17 A2999 RMK A01 T02670174  RH  058%=      5-min Rain = 0
KPT1 241630Z 07010G16KT 27/18 A2999 RMK A01 T02680175  RH  058%=      5-min Rain = 0
KPT1 241635Z 09012G17KT 27/17 A2999 RMK A01 T02710174  RH  056%=      5-min Rain = 0
KPT1 241640Z 07013KT 27/17 A2999 RMK A01 T02690173  RH  057%=      5-min Rain = 0
KPT1 241645Z 09013KT 27/17 A2999 RMK A01 T02710174  RH  057%=      5-min Rain = 0
KPT1 241650Z 08011G16KT 27/17 A2999 RMK A01 T02710174  RH  057%=      5-min Rain = 0
KPT1 241655Z 09008G13KT 28/18 A2999 RMK A01 T02780177  RH  056%=      5-min Rain = 0
KPT1 241700Z 08011KT 27/18 A2998 RMK A01 T02730175  RH  056%=      5-min Rain = 0
KPT1 241705Z 09011G17KT 27/18 A2998 RMK A01 T02710175  RH  057%=      5-min Rain = 0
KPT1 241710Z 10011G16KT 28/18 A2998 RMK A01 T02780178  RH  056%=      5-min Rain = 0
KPT1 241715Z 09012G17KT 28/18 A2998 RMK A01 T02770177  RH  056%=      5-min Rain = 0
KPT1 241720Z 08012G17KT 28/18 A2998 RMK A01 T02800178  RH  055%=      5-min Rain = 0
KPT1 241725Z 11011G17KT 28/18 A2997 RMK A01 T02770178  RH  056%=      5-min Rain = 0
KPT1 241730Z 10011KT 28/18 A2997 RMK A01 T02840180  RH  055%=      5-min Rain = 0
KPT1 241735Z 08010G15KT 29/18 A2997 RMK A01 T02850179  RH  054%=      5-min Rain = 0
KPT1 241740Z 10011KT 29/18 A2997 RMK A01 T02870180  RH  054%=      5-min Rain = 0
KPT1 241745Z 09009G16KT 28/18 A2997 RMK A01 T02810180  RH  055%=      5-min Rain = 0
KPT1 241750Z 09012KT 28/18 A2997 RMK A01 T02830179  RH  055%=      5-min Rain = 0
KPT1 241755Z 09011G17KT 29/18 A2997 RMK A01 T02860179  RH  054%=      5-min Rain = 0
KPT1 241805Z 10010KT 29/18 A2997 RMK A01 T02870181  RH  054%=      5-min Rain = 0
KPT1 241810Z 11010G15KT 29/18 A2997 RMK A01 T02910182  RH  053%=      5-min Rain = 0
KPT1 241815Z 09010G16KT 29/18 A2996 RMK A01 T02930182  RH  053%=      5-min Rain = 0
KPT1 241820Z 10010G15KT 30/18 A2996 RMK A01 T02950182  RH  052%=      5-min Rain = 0
KPT1 241825Z 11010G16KT 30/18 A2996 RMK A01 T02950182  RH  052%=      5-min Rain = 0
KPT1 241830Z 10010KT 29/18 A2996 RMK A01 T02860181  RH  054%=      5-min Rain = 0
KPT1 241835Z 11010G17KT 30/18 A2996 RMK A01 T02950182  RH  052%=      5-min Rain = 0
KPT1 241840Z 09010G16KT 29/18 A2996 RMK A01 T02880181  RH  054%=      5-min Rain = 0
KPT1 241845Z 10010G15KT 29/18 A2996 RMK A01 T02930182  RH  053%=      5-min Rain = 0
KPT1 241850Z 10007G12KT 30/18 A2996 RMK A01 T02990181  RH  050%=      5-min Rain = 0
KPT1 241855Z 12009G14KT 29/18 A2996 RMK A01 T02930179  RH  051%=      5-min Rain = 0
KPT1 241900Z 11011G17KT 29/18 A2996 RMK A01 T02930178  RH  051%=      5-min Rain = 0
KPT1 241905Z 13009KT 30/18 A2996 RMK A01 T02980178  RH  050%=      5-min Rain = 0
KPT1 241910Z 09009G14KT 30/18 A2996 RMK A01 T03010179  RH  049%=      5-min Rain = 0
KPT1 241915Z 11009KT 30/18 A2995 RMK A01 T03010180  RH  050%=      5-min Rain = 0
KPT1 241920Z 11009KT 30/18 A2995 RMK A01 T03000178  RH  049%=      5-min Rain = 0
KPT1 241925Z 09009G14KT 30/18 A2995 RMK A01 T02970176  RH  049%=      5-min Rain = 0
KPT1 241930Z 12010G16KT 30/18 A2995 RMK A01 T02970179  RH  050%=      5-min Rain = 0
KPT1 241935Z 13009G14KT 29/18 A2995 RMK A01 T02920179  RH  052%=      5-min Rain = 0
KPT1 241940Z 13009KT 30/18 A2995 RMK A01 T03010176  RH  048%=      5-min Rain = 0
KPT1 241945Z 12009KT 30/18 A2994 RMK A01 T03040178  RH  048%=      5-min Rain = 0
KPT1 241950Z 10009G15KT 30/18 A2994 RMK A01 T02970178  RH  050%=      5-min Rain = 0
KPT1 241955Z 09009G14KT 30/18 A2994 RMK A01 T02950177  RH  050%=      5-min Rain = 0
KPT1 242000Z 10009KT 30/18 A2994 RMK A01 T02960178  RH  050%=      5-min Rain = 0
KPT1 242005Z 09006G13KT 31/18 A2994 RMK A01 T03070179  RH  047%=      5-min Rain = 0
KPT1 242010Z 11008G13KT 31/18 A2994 RMK A01 T03100178  RH  046%=      5-min Rain = 0
KPT1 242015Z 14007KT 31/17 A2994 RMK A01 T03080174  RH  046%=      5-min Rain = 0
KPT1 242020Z 13007G13KT 31/18 A2993 RMK A01 T03110178  RH  046%=      5-min Rain = 0
KPT1 242025Z 09009KT 30/18 A2993 RMK A01 T03010180  RH  049%=      5-min Rain = 0
KPT1 242030Z 11010G15KT 30/18 A2993 RMK A01 T03000180  RH  050%=      5-min Rain = 0
KPT1 242035Z 09008G16KT 30/18 A2993 RMK A01 T03030179  RH  049%=      5-min Rain = 0
KPT1 242040Z 10007G13KT 31/18 A2993 RMK A01 T03120179  RH  046%=      5-min Rain = 0
KPT1 242045Z 10010G16KT 31/18 A2993 RMK A01 T03120183  RH  048%=      5-min Rain = 0
KPT1 242050Z 10009KT 31/18 A2993 RMK A01 T03140182  RH  047%=      5-min Rain = 0
KPT1 242055Z 09009KT 30/18 A2992 RMK A01 T03010177  RH  049%=      5-min Rain = 0
KPT1 242100Z 09008KT 31/18 A2992 RMK A01 T03070177  RH  047%=      5-min Rain = 0
KPT1 242105Z 12008KT 31/18 A2992 RMK A01 T03090176  RH  046%=      5-min Rain = 0
KPT1 242110Z 10007G13KT 31/18 A2992 RMK A01 T03070180  RH  048%=      5-min Rain = 0
KPT1 242115Z 09009G15KT 32/18 A2991 RMK A01 T03160181  RH  046%=      5-min Rain = 0
KPT1 242120Z 09011G16KT 32/18 A2991 RMK A01 T03190181  RH  045%=      5-min Rain = 0
KPT1 242125Z 09010G15KT 31/18 A2991 RMK A01 T03140178  RH  045%=      5-min Rain = 0
KPT1 242130Z 09011KT 31/18 A299 RMK A01 T03130178  RH  046%=      5-min Rain = 0
KPT1 242135Z 10009KT 31/18 A299 RMK A01 T03120176  RH  045%=      5-min Rain = 0
KPT1 242140Z 10007KT 30/17 A299 RMK A01 T03020173  RH  047%=      5-min Rain = 0
KPT1 242145Z 05008KT 31/18 A2989 RMK A01 T03100177  RH  046%=      5-min Rain = 0
KPT1 242150Z 12006KT 32/17 A2989 RMK A01 T03190171  RH  042%=      5-min Rain = 0
KPT1 242155Z 12008G13KT 32/17 A2988 RMK A01 T03230173  RH  042%=      5-min Rain = 0
KPT1 242200Z 10007G13KT 32/18 A2988 RMK A01 T03180177  RH  044%=      5-min Rain = 0
KPT1 242205Z 10008G14KT 32/18 A2988 RMK A01 T03160176  RH  044%=      5-min Rain = 0
KPT1 242210Z 12008G14KT 31/18 A2988 RMK A01 T03130176  RH  045%=      5-min Rain = 0
KPT1 242215Z 11006G12KT 31/17 A2989 RMK A01 T03070173  RH  046%=      5-min Rain = 0
KPT1 242220Z 11003KT 31/17 A2989 RMK A01 T03130174  RH  045%=      5-min Rain = 0
KPT1 242225Z 09007G14KT 32/18 A2988 RMK A01 T03210175  RH  043%=      5-min Rain = 0
KPT1 242230Z 09008G13KT 32/18 A2988 RMK A01 T03210176  RH  043%=      5-min Rain = 0
KPT1 242235Z 12008G13KT 32/18 A2988 RMK A01 T03190175  RH  043%=      5-min Rain = 0
KPT1 242240Z 12008KT 31/17 A2988 RMK A01 T03080174  RH  046%=      5-min Rain = 0
KPT1 242245Z 11007G12KT 31/17 A2988 RMK A01 T03090173  RH  045%=      5-min Rain = 0
KPT1 242250Z 10007KT 31/18 A2988 RMK A01 T03100176  RH  046%=      5-min Rain = 0
KPT1 242255Z 08009G15KT 31/18 A2988 RMK A01 T03100175  RH  046%=      5-min Rain = 0
KPT1 242300Z 09009G15KT 31/18 A2988 RMK A01 T03080175  RH  046%=      5-min Rain = 0
KPT1 242305Z 09010KT 31/18 A2988 RMK A01 T03050175  RH  047%=      5-min Rain = 0
KPT1 242310Z 09010KT 30/18 A2987 RMK A01 T03030176  RH  048%=      5-min Rain = 0
KPT1 242315Z 09012KT 30/18 A2987 RMK A01 T03000175  RH  048%=      5-min Rain = 0
KPT1 242320Z 10012KT 30/17 A2987 RMK A01 T02990173  RH  048%=      5-min Rain = 0
KPT1 242325Z 09010KT 30/17 A2987 RMK A01 T02980173  RH  048%=      5-min Rain = 0
KPT1 242330Z 09012KT 30/18 A2987 RMK A01 T02960175  RH  049%=      5-min Rain = 0
KPT1 242335Z 10010KT 29/18 A2987 RMK A01 T02940176  RH  050%=      5-min Rain = 0
KPT1 242340Z 10009KT 29/18 A2987 RMK A01 T02930175  RH  050%=      5-min Rain = 0
KPT1 242345Z 10010G15KT 29/18 A2987 RMK A01 T02920176  RH  051%=      5-min Rain = 0
KPT1 242350Z 09011KT 29/18 A2987 RMK A01 T02910176  RH  051%=      5-min Rain = 0
KPT1 242355Z 10011KT 29/18 A2987 RMK A01 T02900179  RH  052%=      5-min Rain = 0
KPT1 250000Z 10011G17KT 29/18 A2987 RMK A01 T02890180  RH  053%=      5-min Rain = 0
KPT1 250005Z 10012G17KT 29/18 A2987 RMK A01 T02870181  RH  054%=      5-min Rain = 0
KPT1 250010Z 10011KT 29/18 A2986 RMK A01 T02860181  RH  054%=      5-min Rain = 0
KPT1 250015Z 11011KT 29/18 A2987 RMK A01 T02850182  RH  055%=      5-min Rain = 0
KPT1 250020Z 11011KT 28/18 A2988 RMK A01 T02840183  RH  056%=      5-min Rain = 0
KPT1 250025Z 11011KT 28/18 A2988 RMK A01 T02840184  RH  056%=      5-min Rain = 0
KPT1 250030Z 11014G20KT 28/18 A2988 RMK A01 T02830184  RH  056%=      5-min Rain = 0
KPT1 250035Z 11013KT 28/18 A2987 RMK A01 T02820184  RH  057%=      5-min Rain = 0
KPT1 250040Z 10012KT 28/18 A2987 RMK A01 T02810184  RH  057%=      5-min Rain = 0
KPT1 250045Z 10013G19KT 28/19 A2987 RMK A01 T02810185  RH  058%=      5-min Rain = 0
KPT1 250050Z 10012KT 28/19 A2987 RMK A01 T02800186  RH  058%=      5-min Rain = 0
KPT1 250055Z 09015KT 28/19 A2987 RMK A01 T02800186  RH  058%=      5-min Rain = 0
KPT1 250100Z 08014G20KT 28/19 A2987 RMK A01 T02790188  RH  059%=      5-min Rain = 0
KPT1 250105Z 09012G18KT 28/19 A2988 RMK A01 T02780189  RH  060%=      5-min Rain = 0
KPT1 250110Z 09011G16KT 28/19 A2989 RMK A01 T02770191  RH  061%=      5-min Rain = 0
KPT1 250115Z 08011G16KT 28/19 A2989 RMK A01 T02770191  RH  061%=      5-min Rain = 0
KPT1 250120Z 08012KT 28/19 A2988 RMK A01 T02750192  RH  062%=      5-min Rain = 0
KPT1 250125Z 08011KT 27/19 A2988 RMK A01 T02740192  RH  063%=      5-min Rain = 0
KPT1 250130Z 08012KT 27/19 A2988 RMK A01 T02730193  RH  063%=      5-min Rain = 0
KPT1 250135Z 07010G15KT 27/19 A2987 RMK A01 T02710194  RH  064%=      5-min Rain = 0
KPT1 250140Z 07012KT 27/19 A2988 RMK A01 T02710194  RH  065%=      5-min Rain = 0
KPT1 250145Z 07011KT 27/19 A2988 RMK A01 T02710193  RH  064%=      5-min Rain = 0
KPT1 250150Z 08009G15KT 27/19 A2989 RMK A01 T02700192  RH  064%=      5-min Rain = 0
KPT1 250155Z 08010G15KT 27/19 A2989 RMK A01 T02690193  RH  065%=      5-min Rain = 0
KPT1 250200Z 08011KT 27/19 A2989 RMK A01 T02680193  RH  065%=      5-min Rain = 0
KPT1 250205Z 07010G15KT 27/19 A299 RMK A01 T02670193  RH  065%=      5-min Rain = 0
KPT1 250210Z 05010KT 27/19 A2992 RMK A01 T02670193  RH  066%=      5-min Rain = 0
KPT1 250215Z 01009KT 27/20 A2993 RMK A01 T02650197  RH  068%=      5-min Rain = 0
KPT1 250220Z 33007KT 25/21 A2995 RMK A01 T02530210  RH  079%=      5-min Rain = 0.04
KPT1 250225Z 07004G10KT 25/21 A2994 RMK A01 T02450212  RH  084%=      5-min Rain = 0.16
KPT1 250230Z 11012G17KT 24/21 A2991 RMK A01 T02360213  RH  089%=      5-min Rain = 0.04
KPT1 250235Z 11015G20KT 24/21 A299 RMK A01 T02370214  RH  089%=      5-min Rain = 0.01
KPT1 250240Z 11016G22KT 24/22 A2989 RMK A01 T02370215  RH  091%=      5-min Rain = 0.01
KPT1 250245Z 12018G25KT 24/22 A2988 RMK A01 T02360217  RH  092%=      5-min Rain = 0.01
KPT1 250250Z 11021G27KT 23/21 A2987 RMK A01 T02340214  RH  092%=      5-min Rain = 0.02
KPT1 250255Z 11016G23KT 23/21 A2987 RMK A01 T02320209  RH  089%=      5-min Rain = 0.02
KPT1 250300Z 10009G17KT 23/22 A2988 RMK A01 T02330215  RH  092%=      5-min Rain = 0
KPT1 250305Z 21003G8KT 23/22 A299 RMK A01 T02340217  RH  093%=      5-min Rain = 0
KPT1 250310Z 23007KT 23/22 A2992 RMK A01 T02340218  RH  093%=      5-min Rain = 0
KPT1 250315Z 22004KT 24/22 A2993 RMK A01 T02360217  RH  092%=      5-min Rain = 0
KPT1 250320Z 18006KT 24/22 A2994 RMK A01 T02360218  RH  092%=      5-min Rain = 0
KPT1 250325Z 16008G14KT 24/22 A2994 RMK A01 T02360220  RH  093%=      5-min Rain = 0
KPT1 250330Z 15009G15KT 24/22 A2994 RMK A01 T02380221  RH  093%=      5-min Rain = 0
KPT1 250335Z 14010G15KT 24/22 A2994 RMK A01 T02380220  RH  092%=      5-min Rain = 0
KPT1 250340Z 13010KT 24/22 A2994 RMK A01 T02390220  RH  092%=      5-min Rain = 0
KPT1 250345Z 13010KT 24/22 A2994 RMK A01 T02380221  RH  093%=      5-min Rain = 0
KPT1 250350Z 13009KT 24/22 A2994 RMK A01 T02370221  RH  094%=      5-min Rain = 0
KPT1 250355Z 13008KT 24/22 A2994 RMK A01 T02360221  RH  094%=      5-min Rain = 0
KPT1 250400Z 14010KT 23/22 A2994 RMK A01 T02340219  RH  094%=      5-min Rain = 0
KPT1 250405Z 14009KT 23/22 A2994 RMK A01 T02330217  RH  093%=      5-min Rain = 0
KPT1 250410Z 14009KT 23/22 A2995 RMK A01 T02330217  RH  094%=      5-min Rain = 0
KPT1 250415Z 15008KT 23/22 A2995 RMK A01 T02330219  RH  095%=      5-min Rain = 0
KPT1 250420Z 14008KT 23/22 A2996 RMK A01 T02330221  RH  096%=      5-min Rain = 0
KPT1 250425Z 13008KT 23/22 A2996 RMK A01 T02330222  RH  096%=      5-min Rain = 0
KPT1 250430Z 14007KT 23/22 A2996 RMK A01 T02320222  RH  097%=      5-min Rain = 0
KPT1 250435Z 15006KT 23/22 A2996 RMK A01 T02320223  RH  097%=      5-min Rain = 0
KPT1 250440Z 14007KT 23/22 A2996 RMK A01 T02330224  RH  098%=      5-min Rain = 0
KPT1 250445Z 15007KT 23/23 A2996 RMK A01 T02330225  RH  098%=      5-min Rain = 0
KPT1 250450Z 16008KT 23/23 A2996 RMK A01 T02340226  RH  098%=      5-min Rain = 0
KPT1 250455Z 16007KT 23/23 A2996 RMK A01 T02340226  RH  098%=      5-min Rain = 0

Page generated in 0.0126 seconds.